createdAt,value
2023-04-13T00:02:00.678Z,71.4
2023-04-13T00:03:00.998Z,71.2
2023-04-13T00:04:01.060Z,71.3
2023-04-13T00:05:00.584Z,71.5
2023-04-13T00:06:00.527Z,71.3
2023-04-13T00:07:00.514Z,71.3
2023-04-13T00:08:00.528Z,71.0
2023-04-13T00:09:00.536Z,71.3
2023-04-13T00:10:00.508Z,71.1
2023-04-13T00:11:00.513Z,71.2
2023-04-13T00:12:00.520Z,71.1
2023-04-13T00:13:01.559Z,70.9
2023-04-13T00:14:00.703Z,70.6
2023-04-13T00:15:00.641Z,70.6
2023-04-13T00:16:00.508Z,71.2
2023-04-13T00:17:00.653Z,71.4
2023-04-13T00:18:00.609Z,71.2
2023-04-13T00:19:00.521Z,70.7
2023-04-13T00:20:00.792Z,71.3
2023-04-13T00:21:00.519Z,71.4
2023-04-13T00:22:00.503Z,71.2
2023-04-13T00:23:00.533Z,71.0
2023-04-13T00:24:00.827Z,70.8
2023-04-13T00:25:00.507Z,70.6
2023-04-13T00:26:00.525Z,70.4
2023-04-13T00:27:00.495Z,70.3
2023-04-13T00:28:00.503Z,70.1
2023-04-13T00:29:00.510Z,70.5
2023-04-13T00:30:00.507Z,70.4
2023-04-13T00:31:00.520Z,70.2
2023-04-13T00:32:00.524Z,69.8
2023-04-13T00:33:00.918Z,68.5
2023-04-13T00:34:00.516Z,66.7
2023-04-13T00:35:00.801Z,65.5
2023-04-13T00:36:00.534Z,65.5
2023-04-13T00:37:00.525Z,65.9
2023-04-13T00:38:00.614Z,65.9
2023-04-13T00:39:00.541Z,66.0
2023-04-13T00:40:00.523Z,66.1
2023-04-13T00:41:00.506Z,66.1
2023-04-13T00:42:00.561Z,66.0
2023-04-13T00:43:00.540Z,66.0
2023-04-13T00:44:00.633Z,67.1
2023-04-13T00:45:00.652Z,67.4
2023-04-13T00:46:00.818Z,67.3
2023-04-13T00:47:02.082Z,67.7
2023-04-13T00:48:00.648Z,67.8
2023-04-13T00:49:00.551Z,67.8
2023-04-13T00:50:01.364Z,68.0
2023-04-13T00:51:01.085Z,68.1
2023-04-13T00:52:02.001Z,68.1
2023-04-13T00:53:01.156Z,68.7
2023-04-13T00:54:00.587Z,68.7
2023-04-13T00:55:00.644Z,68.6
2023-04-13T00:56:00.856Z,68.7
2023-04-13T00:57:00.658Z,68.6
2023-04-13T00:58:00.544Z,68.4
2023-04-13T00:59:00.594Z,68.6
2023-04-13T01:00:02.469Z,68.6
2023-04-13T01:01:01.152Z,68.8
2023-04-13T01:02:00.609Z,69.0
2023-04-13T01:03:00.645Z,68.7
2023-04-13T01:04:00.766Z,68.7
2023-04-13T01:05:00.573Z,68.6
2023-04-13T01:06:00.492Z,69.3
2023-04-13T01:07:01.501Z,69.2
2023-04-13T01:08:07.246Z,69.0
2023-04-13T01:09:05.517Z,68.8
2023-04-13T01:10:05.898Z,68.5
2023-04-13T01:11:01.595Z,68.0
2023-04-13T01:12:10.406Z,67.5
2023-04-13T01:13:00.541Z,67.1
2023-04-13T01:14:04.461Z,66.1
2023-04-13T01:15:04.948Z,64.5
2023-04-13T01:16:03.369Z,62.6
2023-04-13T01:17:02.847Z,61.6
2023-04-13T01:18:01.001Z,60.4
2023-04-13T01:19:02.524Z,59.1
2023-04-13T01:20:02.876Z,58.7
2023-04-13T01:21:00.856Z,58.6
2023-04-13T01:22:01.322Z,58.0
2023-04-13T01:23:03.374Z,57.9
2023-04-13T01:24:10.373Z,57.5
2023-04-13T01:25:10.377Z,57.5
2023-04-13T01:26:01.578Z,56.7
2023-04-13T01:27:03.852Z,56.1
2023-04-13T01:28:02.875Z,56.1
2023-04-13T01:29:01.445Z,55.6
2023-04-13T01:30:01.083Z,56.1
2023-04-13T01:31:01.354Z,55.3
2023-04-13T01:32:01.257Z,54.8
2023-04-13T01:33:00.809Z,54.1
2023-04-13T01:34:00.772Z,53.8
2023-04-13T01:35:00.634Z,53.8
2023-04-13T01:36:01.054Z,53.1
2023-04-13T01:37:00.533Z,53.3
2023-04-13T01:38:00.504Z,50.7
2023-04-13T01:39:00.487Z,51.0
2023-04-13T01:40:00.509Z,50.5
2023-04-13T01:41:00.599Z,50.4
2023-04-13T01:42:00.520Z,49.1
2023-04-13T01:43:00.539Z,48.6
2023-04-13T01:44:00.841Z,48.3
2023-04-13T01:45:00.668Z,48.3
2023-04-13T01:46:03.550Z,47.6
2023-04-13T01:47:10.389Z,48.1
2023-04-13T01:48:10.424Z,48.1
2023-04-13T01:49:01.954Z,47.7
2023-04-13T01:50:07.820Z,47.5
2023-04-13T01:51:04.686Z,47.5
2023-04-13T01:52:00.929Z,46.8
2023-04-13T01:53:03.130Z,46.4
2023-04-13T01:54:03.330Z,45.8
2023-04-13T01:55:01.228Z,45.4
2023-04-13T01:56:01.900Z,45.0
2023-04-13T01:57:01.020Z,45.5
2023-04-13T01:58:00.798Z,45.8
2023-04-13T01:59:00.768Z,45.1
2023-04-13T02:00:00.502Z,45.2
2023-04-13T02:01:00.769Z,46.1
2023-04-13T02:02:00.586Z,46.4
2023-04-13T02:03:04.778Z,46.8
2023-04-13T02:04:01.856Z,45.9
2023-04-13T02:05:00.525Z,46.1
2023-04-13T02:06:01.043Z,45.8
2023-04-13T02:07:00.594Z,46.5
2023-04-13T02:08:00.519Z,46.5
2023-04-13T02:09:00.516Z,46.5
2023-04-13T02:10:00.506Z,46.1
2023-04-13T02:11:00.484Z,46.7
2023-04-13T02:12:00.470Z,46.7
2023-04-13T02:13:00.807Z,47.1
2023-04-13T02:14:00.721Z,46.9
2023-04-13T02:15:00.564Z,46.8
2023-04-13T02:16:00.923Z,46.9
2023-04-13T02:17:00.518Z,47.0
2023-04-13T02:18:00.713Z,46.3
2023-04-13T02:19:00.559Z,46.2
2023-04-13T02:20:01.560Z,46.3
2023-04-13T02:21:01.771Z,46.4
2023-04-13T02:22:00.532Z,46.9
2023-04-13T02:23:00.512Z,46.9
2023-04-13T02:24:00.833Z,46.8
2023-04-13T02:25:00.590Z,46.4
2023-04-13T02:26:00.661Z,46.3
2023-04-13T02:27:00.538Z,46.2
2023-04-13T02:28:00.586Z,46.3
2023-04-13T02:29:00.508Z,46.4
2023-04-13T02:30:01.012Z,46.4
2023-04-13T02:31:00.599Z,46.3
2023-04-13T02:32:00.551Z,46.4
2023-04-13T02:33:00.551Z,46.6
2023-04-13T02:34:00.866Z,46.6
2023-04-13T02:35:00.730Z,46.9
2023-04-13T02:36:01.558Z,47.3
2023-04-13T02:37:00.867Z,47.8
2023-04-13T02:38:00.516Z,48.6
2023-04-13T02:39:00.537Z,49.6
2023-04-13T02:40:00.505Z,50.7
2023-04-13T02:41:00.594Z,51.4
2023-04-13T02:42:00.576Z,51.5
2023-04-13T02:43:00.694Z,51.8
2023-04-13T02:44:00.770Z,52.1
2023-04-13T02:45:00.538Z,52.8
2023-04-13T02:46:00.550Z,53.2
2023-04-13T02:47:00.709Z,53.0
2023-04-13T02:48:00.532Z,53.7
2023-04-13T02:49:00.525Z,53.8
2023-04-13T02:50:00.613Z,53.7
2023-04-13T02:51:00.533Z,53.9
2023-04-13T02:52:00.547Z,54.0
2023-04-13T02:53:00.516Z,54.1
2023-04-13T02:54:01.233Z,54.1
2023-04-13T02:55:00.563Z,54.1
2023-04-13T02:56:00.564Z,53.9
2023-04-13T02:57:00.519Z,53.9
2023-04-13T02:58:00.593Z,54.0
2023-04-13T02:59:00.516Z,53.9
2023-04-13T03:00:00.510Z,53.7
2023-04-13T03:01:00.577Z,53.6
2023-04-13T03:02:00.661Z,53.4
2023-04-13T03:03:00.899Z,53.2
2023-04-13T03:04:01.096Z,52.9
2023-04-13T03:05:00.783Z,52.4
2023-04-13T03:06:00.524Z,52.2
2023-04-13T03:07:00.507Z,52.0
2023-04-13T03:08:00.493Z,51.7
2023-04-13T03:09:00.583Z,51.9
2023-04-13T03:10:01.366Z,51.8
2023-04-13T03:11:00.503Z,51.9
2023-04-13T03:12:00.543Z,51.6
2023-04-13T03:13:00.514Z,51.3
2023-04-13T03:14:00.762Z,49.6
2023-04-13T03:15:00.539Z,49.1
2023-04-13T03:16:00.740Z,48.7
2023-04-13T03:17:00.562Z,48.9
2023-04-13T03:18:00.654Z,49.5
2023-04-13T03:19:00.500Z,49.5
2023-04-13T03:20:00.607Z,49.4
2023-04-13T03:21:00.513Z,49.7
2023-04-13T03:22:00.515Z,48.9
2023-04-13T03:23:00.529Z,49.1
2023-04-13T03:24:00.683Z,48.7
2023-04-13T03:25:00.504Z,48.9
2023-04-13T03:26:00.517Z,48.2
2023-04-13T03:27:00.502Z,48.0
2023-04-13T03:28:00.566Z,48.2
2023-04-13T03:29:00.530Z,47.8
2023-04-13T03:30:00.812Z,47.6
2023-04-13T03:31:00.583Z,48.1
2023-04-13T03:32:00.505Z,48.1
2023-04-13T03:33:00.595Z,48.3
2023-04-13T03:34:00.919Z,47.4
2023-04-13T03:35:00.528Z,47.6
2023-04-13T03:36:00.554Z,48.1
2023-04-13T03:37:00.490Z,47.9
2023-04-13T03:38:00.532Z,47.6
2023-04-13T03:39:00.490Z,47.8
2023-04-13T03:40:00.524Z,48.0
2023-04-13T03:41:00.545Z,48.1
2023-04-13T03:42:00.605Z,48.0
2023-04-13T03:43:00.537Z,47.9
2023-04-13T03:44:00.842Z,47.8
2023-04-13T03:45:00.609Z,47.7
2023-04-13T03:46:00.655Z,47.5
2023-04-13T03:47:00.539Z,47.0
2023-04-13T03:48:00.562Z,47.3
2023-04-13T03:49:00.552Z,47.3
2023-04-13T03:50:00.526Z,46.8
2023-04-13T03:51:00.537Z,46.5
2023-04-13T03:52:00.531Z,46.8
2023-04-13T03:53:00.680Z,47.0
2023-04-13T03:54:01.005Z,46.5
2023-04-13T03:55:00.627Z,45.8
2023-04-13T03:56:00.538Z,46.1
2023-04-13T03:57:00.776Z,45.5
2023-04-13T03:58:00.629Z,45.3
2023-04-13T03:59:00.560Z,45.2
2023-04-13T04:00:00.616Z,45.1
2023-04-13T04:01:00.485Z,45.3
2023-04-13T04:02:00.581Z,45.1
2023-04-13T04:03:00.666Z,45.2
2023-04-13T04:04:01.077Z,44.9
2023-04-13T04:05:00.546Z,44.6
2023-04-13T04:06:00.502Z,44.4
2023-04-13T04:07:00.506Z,44.7
2023-04-13T04:08:00.536Z,44.6
2023-04-13T04:09:00.571Z,44.6
2023-04-13T04:10:00.552Z,44.7
2023-04-13T04:11:00.529Z,44.6
2023-04-13T04:12:00.532Z,44.6
2023-04-13T04:13:00.508Z,44.5
2023-04-13T04:14:00.926Z,44.5
2023-04-13T04:15:00.630Z,44.3
2023-04-13T04:16:00.548Z,44.5
2023-04-13T04:17:00.494Z,44.2
2023-04-13T04:18:00.655Z,44.2
2023-04-13T04:19:00.500Z,44.4
2023-04-13T04:20:00.539Z,44.2
2023-04-13T04:21:00.516Z,44.0
2023-04-13T04:22:01.169Z,43.9
2023-04-13T04:23:00.509Z,44.1
2023-04-13T04:24:01.239Z,44.2
2023-04-13T04:25:00.536Z,44.0
2023-04-13T04:26:00.595Z,44.0
2023-04-13T04:27:00.569Z,43.9
2023-04-13T04:28:00.557Z,44.1
2023-04-13T04:29:00.539Z,44.0
2023-04-13T04:30:00.488Z,43.9
2023-04-13T04:31:00.512Z,44.0
2023-04-13T04:32:01.236Z,43.9
2023-04-13T04:33:00.536Z,44.1
2023-04-13T04:34:00.865Z,44.0
2023-04-13T04:35:00.510Z,44.1
2023-04-13T04:36:00.531Z,44.0
2023-04-13T04:37:03.455Z,44.0
2023-04-13T04:38:01.081Z,44.2
2023-04-13T04:39:00.544Z,44.3
2023-04-13T04:40:00.536Z,44.1
2023-04-13T04:41:00.508Z,44.2
2023-04-13T04:42:00.497Z,44.2
2023-04-13T04:43:00.930Z,44.2
2023-04-13T04:44:00.718Z,44.2
2023-04-13T04:45:00.508Z,44.1
2023-04-13T04:46:00.617Z,44.0
2023-04-13T04:47:00.483Z,43.9
2023-04-13T04:48:00.650Z,43.9
2023-04-13T04:49:00.676Z,44.0
2023-04-13T04:50:00.496Z,44.1
2023-04-13T04:51:00.527Z,44.1
2023-04-13T04:52:00.479Z,44.1
2023-04-13T04:53:00.500Z,44.2
2023-04-13T04:54:00.949Z,44.3
2023-04-13T04:55:00.524Z,44.2
2023-04-13T04:56:00.523Z,44.2
2023-04-13T04:57:00.544Z,44.3
2023-04-13T04:58:00.556Z,44.3
2023-04-13T04:59:00.978Z,44.3
2023-04-13T05:00:01.317Z,44.4
2023-04-13T05:01:00.537Z,44.3
2023-04-13T05:02:00.593Z,44.3
2023-04-13T05:03:00.650Z,44.3
2023-04-13T05:04:00.839Z,44.4
2023-04-13T05:05:00.537Z,44.3
2023-04-13T05:06:00.513Z,44.5
2023-04-13T05:07:00.566Z,44.4
2023-04-13T05:08:00.532Z,44.5
2023-04-13T05:09:02.248Z,44.5
2023-04-13T05:10:00.505Z,44.5
2023-04-13T05:11:00.537Z,44.6
2023-04-13T05:12:00.495Z,44.7
2023-04-13T05:13:00.513Z,44.7
2023-04-13T05:14:01.120Z,44.7
2023-04-13T05:15:00.667Z,44.7
2023-04-13T05:16:00.632Z,44.8
2023-04-13T05:17:00.536Z,44.9
2023-04-13T05:18:00.551Z,45.0
2023-04-13T05:19:00.751Z,45.0
2023-04-13T05:20:01.121Z,45.1
2023-04-13T05:21:00.506Z,45.1
2023-04-13T05:22:00.520Z,45.1
2023-04-13T05:23:00.608Z,45.1
2023-04-13T05:24:00.517Z,45.1
2023-04-13T05:25:00.560Z,45.1
2023-04-13T05:26:00.549Z,45.1
2023-04-13T05:27:00.512Z,45.2
2023-04-13T05:28:00.539Z,45.2
2023-04-13T05:29:00.834Z,45.2
2023-04-13T05:30:00.544Z,45.2
2023-04-13T05:31:01.515Z,45.1
2023-04-13T05:32:01.171Z,45.2
2023-04-13T05:33:00.582Z,45.3
2023-04-13T05:34:00.609Z,45.2
2023-04-13T05:35:00.668Z,45.0
2023-04-13T05:36:00.852Z,45.0
2023-04-13T05:37:00.554Z,45.1
2023-04-13T05:38:00.504Z,45.1
2023-04-13T05:39:01.270Z,45.0
2023-04-13T05:40:00.720Z,45.0
2023-04-13T05:41:00.523Z,45.0
2023-04-13T05:42:00.755Z,45.0
2023-04-13T05:43:00.530Z,44.9
2023-04-13T05:44:00.515Z,44.9
2023-04-13T05:45:00.519Z,44.6
2023-04-13T05:46:00.571Z,44.7
2023-04-13T05:47:00.507Z,44.7
2023-04-13T05:48:00.570Z,44.8
2023-04-13T05:49:00.802Z,44.5
2023-04-13T05:50:00.509Z,44.6
2023-04-13T05:51:00.520Z,44.2
2023-04-13T05:52:00.500Z,44.2
2023-04-13T05:53:00.561Z,44.0
2023-04-13T05:54:00.968Z,44.1
2023-04-13T05:55:00.523Z,44.3
2023-04-13T05:56:00.500Z,43.9
2023-04-13T05:57:00.508Z,43.6
2023-04-13T05:58:00.521Z,44.0
2023-04-13T05:59:00.779Z,43.5
2023-04-13T06:00:00.557Z,43.3
2023-04-13T06:01:00.531Z,42.8
2023-04-13T06:02:00.588Z,42.5
2023-04-13T06:03:00.699Z,43.1
2023-04-13T06:04:00.865Z,42.5
2023-04-13T06:05:00.692Z,42.1
2023-04-13T06:06:00.569Z,42.1
2023-04-13T06:07:00.573Z,42.0
2023-04-13T06:08:00.552Z,41.0
2023-04-13T06:09:00.872Z,40.9
2023-04-13T06:10:00.840Z,40.7
2023-04-13T06:11:00.726Z,40.6
2023-04-13T06:12:00.518Z,40.1
2023-04-13T06:13:00.499Z,40.6
2023-04-13T06:14:00.514Z,39.7
2023-04-13T06:15:00.563Z,40.1
2023-04-13T06:16:00.705Z,39.8
2023-04-13T06:17:00.518Z,40.3
2023-04-13T06:18:00.534Z,39.2
2023-04-13T06:19:00.732Z,38.6
2023-04-13T06:20:00.793Z,38.1
2023-04-13T06:21:00.494Z,38.1
2023-04-13T06:22:00.489Z,38.8
2023-04-13T06:23:00.546Z,38.1
2023-04-13T06:24:00.521Z,37.6
2023-04-13T06:25:00.545Z,37.7
2023-04-13T06:26:00.730Z,37.3
2023-04-13T06:27:00.588Z,36.8
2023-04-13T06:28:01.116Z,37.1
2023-04-13T06:29:00.872Z,37.0
2023-04-13T06:30:00.507Z,37.3
2023-04-13T06:31:00.585Z,37.0
2023-04-13T06:32:00.532Z,36.3
2023-04-13T06:33:00.605Z,36.4
2023-04-13T06:34:00.485Z,36.7
2023-04-13T06:35:00.604Z,36.3
2023-04-13T06:36:01.068Z,36.2
2023-04-13T06:37:00.989Z,36.3
2023-04-13T06:38:00.774Z,35.8
2023-04-13T06:39:00.841Z,36.0
2023-04-13T06:40:00.936Z,36.4
2023-04-13T06:41:01.096Z,36.5
2023-04-13T06:42:00.500Z,35.3
2023-04-13T06:43:00.519Z,34.7
2023-04-13T06:44:00.491Z,34.7
2023-04-13T06:45:00.552Z,35.1
2023-04-13T06:46:00.708Z,35.0
2023-04-13T06:47:00.523Z,34.4
2023-04-13T06:48:00.709Z,34.3
2023-04-13T06:49:00.728Z,35.2
2023-04-13T06:50:02.496Z,34.3
2023-04-13T06:51:00.534Z,34.9
2023-04-13T06:52:00.517Z,34.7
2023-04-13T06:53:00.751Z,34.4
2023-04-13T06:54:00.514Z,35.1
2023-04-13T06:55:00.745Z,34.7
2023-04-13T06:56:00.493Z,34.7
2023-04-13T06:57:00.497Z,35.2
2023-04-13T06:58:00.469Z,35.1
2023-04-13T06:59:02.281Z,35.3
2023-04-13T07:00:00.510Z,35.2
2023-04-13T07:01:00.608Z,35.6
2023-04-13T07:02:00.705Z,35.0
2023-04-13T07:03:00.858Z,35.1
2023-04-13T07:04:00.560Z,34.7
2023-04-13T07:05:00.633Z,34.4
2023-04-13T07:06:00.499Z,35.0
2023-04-13T07:07:00.491Z,46.2
2023-04-13T07:08:00.531Z,52.1
2023-04-13T07:09:00.890Z,48.1
2023-04-13T07:10:00.856Z,48.9
2023-04-13T07:11:00.745Z,48.7
2023-04-13T07:12:04.113Z,46.6
2023-04-13T07:13:00.496Z,46.9
2023-04-13T07:14:00.508Z,44.9
2023-04-13T07:15:00.539Z,43.9
2023-04-13T07:16:00.564Z,44.2
2023-04-13T07:17:00.753Z,42.8
2023-04-13T07:18:00.580Z,42.7
2023-04-13T07:19:00.793Z,40.5
2023-04-13T07:20:00.497Z,41.8
2023-04-13T07:21:00.706Z,40.2
2023-04-13T07:22:01.142Z,40.2
2023-04-13T07:23:00.554Z,40.8
2023-04-13T07:24:00.565Z,41.3
2023-04-13T07:25:00.701Z,39.0
2023-04-13T07:26:00.516Z,42.0
2023-04-13T07:27:00.529Z,39.2
2023-04-13T07:28:00.605Z,39.6
2023-04-13T07:29:00.703Z,36.2
2023-04-13T07:30:00.504Z,35.5
2023-04-13T07:31:00.547Z,35.6
2023-04-13T07:32:01.633Z,37.3
2023-04-13T07:33:00.632Z,34.1
2023-04-13T07:34:00.505Z,34.8
2023-04-13T07:35:00.528Z,34.5
2023-04-13T07:36:00.506Z,35.0
2023-04-13T07:37:00.524Z,31.5
2023-04-13T07:38:00.512Z,32.9
2023-04-13T07:39:00.833Z,34.3
2023-04-13T07:40:00.605Z,33.1
2023-04-13T07:41:00.565Z,34.0
2023-04-13T07:42:00.687Z,34.9
2023-04-13T07:43:00.660Z,33.5
2023-04-13T07:44:01.010Z,31.7
2023-04-13T07:45:00.572Z,31.6
2023-04-13T07:46:06.902Z,32.4
2023-04-13T07:47:00.615Z,32.8
2023-04-13T07:48:00.618Z,31.0
2023-04-13T07:49:00.718Z,28.2
2023-04-13T07:50:00.559Z,29.3
2023-04-13T07:51:00.529Z,29.1
2023-04-13T07:52:00.529Z,29.7
2023-04-13T07:53:00.666Z,29.3
2023-04-13T07:54:01.009Z,29.9
2023-04-13T07:55:01.486Z,28.8
2023-04-13T07:56:00.506Z,28.6
2023-04-13T07:57:00.556Z,28.5
2023-04-13T07:58:00.537Z,26.9
2023-04-13T07:59:01.202Z,28.4
2023-04-13T08:00:02.858Z,27.1
2023-04-13T08:01:00.959Z,26.2
2023-04-13T08:02:00.559Z,25.0
2023-04-13T08:03:00.729Z,25.4
2023-04-13T08:04:00.737Z,26.5
2023-04-13T08:05:01.492Z,24.8
2023-04-13T08:06:00.505Z,24.9
2023-04-13T08:07:02.375Z,25.6
2023-04-13T08:08:00.508Z,26.0
2023-04-13T08:09:00.763Z,26.0
2023-04-13T08:10:00.543Z,26.3
2023-04-13T08:11:00.502Z,24.8
2023-04-13T08:12:01.155Z,25.5
2023-04-13T08:13:00.526Z,25.0
2023-04-13T08:14:00.526Z,24.9
2023-04-13T08:15:00.614Z,25.6
2023-04-13T08:16:00.601Z,25.0
2023-04-13T08:17:03.230Z,25.8
2023-04-13T08:18:00.599Z,25.1
2023-04-13T08:19:00.974Z,25.6
2023-04-13T08:20:00.539Z,24.8
2023-04-13T08:21:00.519Z,24.6
2023-04-13T08:22:00.564Z,24.7
2023-04-13T08:23:00.546Z,24.3
2023-04-13T08:24:00.558Z,24.9
2023-04-13T08:25:00.513Z,23.7
2023-04-13T08:26:00.561Z,23.9
2023-04-13T08:27:00.542Z,24.0
2023-04-13T08:28:00.661Z,24.5
2023-04-13T08:29:00.786Z,23.8
2023-04-13T08:30:00.523Z,22.7
2023-04-13T08:31:00.522Z,23.4
2023-04-13T08:32:00.586Z,22.9
2023-04-13T08:33:00.764Z,23.6
2023-04-13T08:34:00.506Z,23.1
2023-04-13T08:35:00.533Z,23.2
2023-04-13T08:36:00.508Z,23.0
2023-04-13T08:37:00.574Z,22.7
2023-04-13T08:38:01.638Z,22.8
2023-04-13T08:39:00.932Z,23.2
2023-04-13T08:40:00.858Z,23.3
2023-04-13T08:41:02.045Z,22.5
2023-04-13T08:42:00.502Z,21.4
2023-04-13T08:43:00.565Z,21.8
2023-04-13T08:44:00.762Z,20.5
2023-04-13T08:45:02.182Z,20.9
2023-04-13T08:46:02.294Z,20.7
2023-04-13T08:47:00.541Z,21.8
2023-04-13T08:48:00.772Z,21.3
2023-04-13T08:49:02.105Z,21.5
2023-04-13T08:50:00.960Z,21.1
2023-04-13T08:51:03.939Z,20.5
2023-04-13T08:52:03.678Z,20.9
2023-04-13T08:53:00.690Z,20.9
2023-04-13T08:54:00.504Z,20.2
2023-04-13T08:55:00.766Z,20.5
2023-04-13T08:56:00.712Z,20.8
2023-04-13T08:57:01.204Z,20.5
2023-04-13T08:58:02.073Z,20.6
2023-04-13T08:59:03.130Z,19.9
2023-04-13T09:00:00.558Z,20.6
2023-04-13T09:01:00.832Z,20.8
2023-04-13T09:02:01.186Z,20.4
2023-04-13T09:03:05.377Z,19.8
2023-04-13T09:04:04.026Z,20.2
2023-04-13T09:05:02.645Z,20.0
2023-04-13T09:06:03.740Z,20.3
2023-04-13T09:07:01.782Z,20.2
2023-04-13T09:08:00.888Z,20.9
2023-04-13T09:09:03.193Z,20.6
2023-04-13T09:10:01.145Z,20.8
2023-04-13T09:11:00.906Z,21.0
2023-04-13T09:12:00.507Z,21.2
2023-04-13T09:13:00.494Z,21.7
2023-04-13T09:14:00.920Z,20.6
2023-04-13T09:15:00.906Z,19.1
2023-04-13T09:16:00.510Z,18.8
2023-04-13T09:17:00.711Z,18.8
2023-04-13T09:18:08.898Z,18.8
2023-04-13T09:19:00.888Z,18.9
2023-04-13T09:20:10.405Z,18.9
2023-04-13T09:21:00.546Z,19.4
2023-04-13T09:22:10.397Z,19.0
2023-04-13T09:23:10.391Z,19.2
2023-04-13T09:24:00.804Z,18.9
2023-04-13T09:25:00.533Z,18.1
2023-04-13T09:26:07.886Z,17.6
2023-04-13T09:27:01.344Z,17.7
2023-04-13T09:28:00.542Z,18.0
2023-04-13T09:29:02.190Z,18.0
2023-04-13T09:30:00.525Z,17.3
2023-04-13T09:31:01.195Z,17.3
2023-04-13T09:32:00.659Z,17.4
2023-04-13T09:33:04.524Z,17.8
2023-04-13T09:34:00.693Z,17.9
2023-04-13T09:35:01.893Z,18.0
2023-04-13T09:36:08.300Z,18.3
2023-04-13T09:37:10.381Z,17.5
2023-04-13T09:38:00.560Z,17.5
2023-04-13T09:39:00.708Z,17.8
2023-04-13T09:40:08.440Z,17.1
2023-04-13T09:41:00.530Z,17.4
2023-04-13T09:42:08.373Z,17.6
2023-04-13T09:43:01.538Z,17.4
2023-04-13T09:44:02.403Z,17.5
2023-04-13T09:45:00.521Z,17.9
2023-04-13T09:46:00.623Z,18.1
2023-04-13T09:47:01.867Z,18.7
2023-04-13T09:48:00.975Z,18.4
2023-04-13T09:49:02.646Z,18.2
2023-04-13T09:50:01.506Z,18.3
2023-04-13T09:51:01.253Z,17.9
2023-04-13T09:52:00.534Z,17.8
2023-04-13T09:53:01.336Z,17.9
2023-04-13T09:54:00.591Z,17.6
2023-04-13T09:55:00.544Z,17.6
2023-04-13T09:56:00.521Z,18.2
2023-04-13T09:57:00.540Z,17.8
2023-04-13T09:58:10.387Z,17.4
2023-04-13T09:59:00.822Z,17.6
2023-04-13T10:00:00.538Z,17.7
2023-04-13T10:01:00.604Z,18.0
2023-04-13T10:02:02.682Z,17.9
2023-04-13T10:03:01.299Z,17.8
2023-04-13T10:04:02.877Z,17.3
2023-04-13T10:05:00.551Z,17.2
2023-04-13T10:06:00.877Z,17.5
2023-04-13T10:07:00.552Z,17.9
2023-04-13T10:08:00.610Z,17.6
2023-04-13T10:09:00.891Z,17.5
2023-04-13T10:10:00.530Z,17.9
2023-04-13T10:11:01.004Z,17.8
2023-04-13T10:12:00.719Z,17.8
2023-04-13T10:13:02.196Z,17.4
2023-04-13T10:14:00.923Z,17.0
2023-04-13T10:15:09.101Z,17.1
2023-04-13T10:16:03.586Z,17.6
2023-04-13T10:17:00.488Z,17.8
2023-04-13T10:18:11.300Z,18.0
2023-04-13T10:19:03.523Z,17.9
2023-04-13T10:20:02.143Z,18.1
2023-04-13T10:21:01.281Z,18.1
2023-04-13T10:22:03.161Z,18.3
2023-04-13T10:23:02.318Z,18.4
2023-04-13T10:24:02.253Z,18.5
2023-04-13T10:25:00.647Z,18.4
2023-04-13T10:26:00.868Z,18.6
2023-04-13T10:27:09.517Z,18.8
2023-04-13T10:28:00.773Z,18.6
2023-04-13T10:29:01.239Z,18.5
2023-04-13T10:30:10.434Z,18.5
2023-04-13T10:31:00.520Z,18.6
2023-04-13T10:32:00.643Z,18.7
2023-04-13T10:33:01.466Z,18.9
2023-04-13T10:34:00.894Z,18.9
2023-04-13T10:35:07.644Z,19.0
2023-04-13T10:36:00.582Z,19.2
2023-04-13T10:37:00.763Z,19.0
2023-04-13T10:38:00.515Z,18.7
2023-04-13T10:39:00.953Z,18.9
2023-04-13T10:40:03.088Z,19.0
2023-04-13T10:41:00.534Z,19.0
2023-04-13T10:42:00.527Z,18.9
2023-04-13T10:43:00.547Z,18.7
2023-04-13T10:44:01.480Z,18.7
2023-04-13T10:45:00.528Z,18.7
2023-04-13T10:46:08.612Z,18.3
2023-04-13T10:47:00.591Z,18.3
2023-04-13T10:48:00.798Z,17.9
2023-04-13T10:49:01.943Z,17.9
2023-04-13T10:50:00.527Z,17.8
2023-04-13T10:51:00.838Z,17.8
2023-04-13T10:52:00.494Z,17.7
2023-04-13T10:53:02.546Z,17.6
2023-04-13T10:54:03.905Z,17.6
2023-04-13T10:55:00.914Z,17.6
2023-04-13T10:56:00.540Z,17.8
2023-04-13T10:57:01.733Z,17.5
2023-04-13T10:58:01.268Z,17.6
2023-04-13T10:59:00.929Z,17.1
2023-04-13T11:00:00.531Z,16.7
2023-04-13T11:01:00.554Z,16.6
2023-04-13T11:02:04.183Z,16.9
2023-04-13T11:03:00.660Z,16.7
2023-04-13T11:04:06.060Z,16.6
2023-04-13T11:05:00.629Z,16.4
2023-04-13T11:06:00.592Z,16.7
2023-04-13T11:07:00.541Z,16.9
2023-04-13T11:08:00.543Z,16.8
2023-04-13T11:09:00.689Z,16.5
2023-04-13T11:10:06.677Z,16.3
2023-04-13T11:11:00.552Z,16.5
2023-04-13T11:12:00.514Z,16.7
2023-04-13T11:13:00.498Z,16.7
2023-04-13T11:14:00.678Z,16.7
2023-04-13T11:15:00.608Z,16.7
2023-04-13T11:16:01.146Z,16.2
2023-04-13T11:17:00.968Z,15.7
2023-04-13T11:18:00.562Z,15.1
2023-04-13T11:19:02.225Z,15.1
2023-04-13T11:20:00.555Z,15.9
2023-04-13T11:21:00.588Z,16.0
2023-04-13T11:22:00.518Z,16.1
2023-04-13T11:23:01.052Z,16.1
2023-04-13T11:24:00.504Z,16.0
2023-04-13T11:25:08.139Z,15.9
2023-04-13T11:26:00.536Z,15.9
2023-04-13T11:27:00.523Z,15.5
2023-04-13T11:28:01.174Z,15.7
2023-04-13T11:29:01.580Z,16.0
2023-04-13T11:30:02.031Z,16.2
2023-04-13T11:31:00.538Z,16.5
2023-04-13T11:32:00.742Z,16.6
2023-04-13T11:33:00.605Z,16.4
2023-04-13T11:34:00.726Z,16.1
2023-04-13T11:35:09.047Z,16.3
2023-04-13T11:36:00.968Z,16.2
2023-04-13T11:37:01.201Z,16.0
2023-04-13T11:38:00.525Z,16.0
2023-04-13T11:39:00.825Z,16.2
2023-04-13T11:40:00.627Z,16.5
2023-04-13T11:41:14.301Z,16.3
2023-04-13T11:42:07.724Z,16.4
2023-04-13T11:43:00.579Z,16.3
2023-04-13T11:44:00.578Z,16.4
2023-04-13T11:45:00.524Z,16.5
2023-04-13T11:46:00.558Z,16.8
2023-04-13T11:47:04.192Z,16.9
2023-04-13T11:48:00.771Z,17.2
2023-04-13T11:49:00.815Z,16.9
2023-04-13T11:50:01.020Z,16.7
2023-04-13T11:51:00.525Z,16.8
2023-04-13T11:52:01.307Z,16.5
2023-04-13T11:53:01.967Z,16.5
2023-04-13T11:54:00.882Z,16.3
2023-04-13T11:55:14.867Z,16.0
2023-04-13T11:56:00.910Z,16.0
2023-04-13T11:57:00.737Z,16.1
2023-04-13T11:58:05.576Z,16.2
2023-04-13T11:59:00.772Z,16.5
2023-04-13T12:00:00.611Z,16.4
2023-04-13T12:01:07.771Z,16.3
2023-04-13T12:02:03.157Z,16.2
2023-04-13T12:03:03.051Z,16.3
2023-04-13T12:04:08.447Z,16.4
2023-04-13T12:05:00.754Z,16.5
2023-04-13T12:06:00.812Z,16.6
2023-04-13T12:07:01.358Z,16.5
2023-04-13T12:08:01.330Z,16.5
2023-04-13T12:09:09.329Z,16.0
2023-04-13T12:10:05.414Z,15.9
2023-04-13T12:12:34.583Z,15.9
2023-04-13T12:13:17.242Z,16.2
2023-04-13T12:14:10.130Z,16.1
2023-04-13T12:16:08.536Z,15.7
2023-04-13T12:17:08.038Z,15.7
2023-04-13T12:18:03.811Z,15.9
2023-04-13T12:19:09.562Z,16.1
2023-04-13T12:20:01.200Z,16.3
2023-04-13T12:21:01.239Z,16.2
2023-04-13T12:22:00.776Z,16.7
2023-04-13T12:23:11.411Z,17.1
2023-04-13T12:24:01.843Z,16.9
2023-04-13T12:25:01.954Z,16.7
2023-04-13T12:26:13.059Z,17.0
2023-04-13T12:28:02.192Z,17.1
2023-04-13T12:29:02.403Z,17.0
2023-04-13T12:30:01.354Z,16.8
2023-04-13T12:31:01.733Z,17.0
2023-04-13T12:32:00.723Z,17.1
2023-04-13T12:33:00.543Z,17.4
2023-04-13T12:34:01.212Z,17.1
2023-04-13T12:35:00.640Z,16.9
2023-04-13T12:36:00.809Z,16.9
2023-04-13T12:37:00.561Z,16.9
2023-04-13T12:38:00.510Z,16.8
2023-04-13T12:39:01.247Z,16.9
2023-04-13T12:40:00.508Z,16.9
2023-04-13T12:41:00.828Z,16.6
2023-04-13T12:42:00.558Z,16.7
2023-04-13T12:43:00.697Z,17.0
2023-04-13T12:44:00.513Z,17.0
2023-04-13T12:45:00.503Z,16.7
2023-04-13T12:46:00.540Z,16.6
2023-04-13T12:47:00.837Z,16.8
2023-04-13T12:48:00.618Z,16.7
2023-04-13T12:49:00.620Z,16.7
2023-04-13T12:50:01.777Z,16.3
2023-04-13T12:51:00.541Z,16.1
2023-04-13T12:52:00.539Z,16.0
2023-04-13T12:53:00.506Z,15.7
2023-04-13T12:54:00.525Z,15.1
2023-04-13T12:55:00.798Z,15.1
2023-04-13T12:56:00.732Z,15.2
2023-04-13T12:57:00.511Z,15.0
2023-04-13T12:58:00.532Z,14.8
2023-04-13T12:59:01.367Z,14.8
2023-04-13T13:00:00.586Z,14.6
2023-04-13T13:01:00.586Z,14.8
2023-04-13T13:02:00.525Z,14.8
2023-04-13T13:03:12.955Z,15.0
2023-04-13T13:04:00.671Z,14.6
2023-04-13T13:05:00.574Z,14.6
2023-04-13T13:06:00.527Z,14.7
2023-04-13T13:07:01.358Z,14.8
2023-04-13T13:08:00.527Z,14.8
2023-04-13T13:09:00.897Z,15.2
2023-04-13T13:10:00.582Z,15.4
2023-04-13T13:11:00.550Z,15.7
2023-04-13T13:12:00.553Z,16.0
2023-04-13T13:13:00.549Z,16.1
2023-04-13T13:14:00.491Z,15.9
2023-04-13T13:15:00.522Z,16.0
2023-04-13T13:16:00.569Z,15.8
2023-04-13T13:17:00.580Z,15.7
2023-04-13T13:18:01.346Z,15.7
2023-04-13T13:19:00.511Z,15.5
2023-04-13T13:20:01.284Z,15.6
2023-04-13T13:21:00.594Z,15.6
2023-04-13T13:22:00.543Z,15.5
2023-04-13T13:23:00.512Z,15.5